Terminal Aerodrome Forecast
Issued by NWS

Home | Current Version | Previous Version | Text Only | Print | Product List | Glossary On
Versions: 1 2 3 4 5 6 7 8 9 10 11 12 13 14 15 16 17 18 19 20
237
FTUS43 KILX 231740 AAA
TAFDEC
TAF AMD
KDEC 231740Z 2318/2418 19004KT P6SM SCT030 SCT250
     FM240200 17005KT P6SM FEW045 BKN250
     FM240900 18006KT 5SM BR FEW040 SCT250
     FM241400 20008KT P6SM SCT030 BKN200=

USA.gov is the U.S. government's official web portal to all federal, state and local government web resources and services.